Delareyville Airport


Codes: FADL/
Name: Delareyville Airport
City: Delareyville
Country: South Africa
Elevation: 4469 ft.

Photos at Delareyville Airport


   Photos courtesy of SpottingLog. You can add your own sightings and photos by signing up for a free trial today.



No photos found.

Weather at Delareyville Airport


Time (UTC)DescriptionTempratureWindCloud coverageVisibilityPressureHumidity
17-Jun-2024 03:00Clear Sky8°C9 mph, NE0%10000m1024hPa66%
17-Jun-2024 06:00Clear Sky9°C9 mph, N0%10000m1024hPa67%
17-Jun-2024 09:00Clear Sky14°C16 mph, N0%10000m1023hPa54%
17-Jun-2024 12:00Clear Sky20°C16 mph, NW0%10000m1018hPa35%
17-Jun-2024 15:00Clear Sky18°C11 mph, NW1%10000m1017hPa35%
17-Jun-2024 18:00Clear Sky12°C7 mph, N2%10000m1020hPa52%
17-Jun-2024 21:00Clear Sky11°C9 mph, N2%10000m1021hPa63%
18-Jun-2024 00:00Clear Sky10°C9 mph, N1%10000m1020hPa67%
18-Jun-2024 03:00Clear Sky9°C9 mph, N0%10000m1019hPa71%
18-Jun-2024 06:00Clear Sky9°C7 mph, N0%10000m1021hPa69%
18-Jun-2024 09:00Clear Sky18°C13 mph, NW0%10000m1019hPa33%
18-Jun-2024 12:00Clear Sky21°C16 mph, NW0%10000m1016hPa19%
18-Jun-2024 15:00Clear Sky18°C9 mph, NW0%10000m1016hPa20%
18-Jun-2024 18:00Clear Sky13°C7 mph, W0%10000m1019hPa29%
18-Jun-2024 21:00Clear Sky10°C4 mph, W2%10000m1019hPa32%
19-Jun-2024 00:00Clear Sky9°C4 mph, SW2%10000m1019hPa34%
19-Jun-2024 03:00Clear Sky7°C0 mph, S0%10000m1019hPa38%
19-Jun-2024 06:00Clear Sky9°C4 mph, NE0%10000m1021hPa34%
19-Jun-2024 09:00Clear Sky18°C4 mph, W0%10000m1020hPa19%
19-Jun-2024 12:00Clear Sky21°C7 mph, W0%10000m1017hPa14%
19-Jun-2024 15:00Clear Sky17°C7 mph, SW0%10000m1018hPa18%
19-Jun-2024 18:00Clear Sky12°C7 mph, SE0%10000m1021hPa25%
19-Jun-2024 21:00Clear Sky10°C7 mph, E0%10000m1022hPa26%
20-Jun-2024 00:00Clear Sky9°C9 mph, NE0%10000m1023hPa28%
20-Jun-2024 03:00Clear Sky8°C9 mph, NE0%10000m1023hPa29%
20-Jun-2024 06:00Clear Sky10°C9 mph, NE1%10000m1024hPa28%
20-Jun-2024 09:00Clear Sky22°C16 mph, N5%10000m1021hPa16%
20-Jun-2024 12:00Clear Sky24°C13 mph, N6%10000m1018hPa13%
20-Jun-2024 15:00Scattered Clouds20°C11 mph, N29%10000m1019hPa18%
20-Jun-2024 18:00Few Clouds14°C11 mph, NE17%10000m1022hPa27%
20-Jun-2024 21:00Few Clouds12°C9 mph, NE22%10000m1023hPa32%
21-Jun-2024 00:00Few Clouds13°C16 mph, N20%10000m1023hPa39%
21-Jun-2024 03:00Clear Sky11°C13 mph, N7%10000m1024hPa62%
21-Jun-2024 06:00Clear Sky11°C16 mph, N5%10000m1025hPa66%
21-Jun-2024 09:00Clear Sky19°C18 mph, N2%10000m1024hPa37%
21-Jun-2024 12:00Clear Sky22°C16 mph, N1%10000m1020hPa26%
21-Jun-2024 15:00Clear Sky20°C9 mph, N0%10000m1020hPa30%
21-Jun-2024 18:00Clear Sky14°C9 mph, N0%10000m1024hPa45%
21-Jun-2024 21:00Clear Sky12°C9 mph, NE0%10000m1024hPa57%
22-Jun-2024 00:00Clear Sky11°C9 mph, NE0%10000m1024hPa63%